Avalon, CA (90704)

2:09 AM PST on February 14, 2016 (GMT -0800)
The Flats, Avalon | | Change Station
CLOSE
Current Station
Personal Weather Station
Location: Avalon, CA
Elevation: 26 ft
Nearby Weather Stations
Active Advisory: High Surf Advisory Active Notice: Public Information Statement

Elev 26 ft 33.34 °N, 118.33 °W | Updated 5 seconds ago

Partly Cloudy
Partly Cloudy
52.5 °F
Feels Like 52.5 °F
N
3.6
Wind Variable Wind from SSW
Gusts 4.9 mph

Today
High -- | Low -- °F
--% Chance of Precip.
Yesterday
High -- | Low -- °F
Precip. -- in
Pressure 30.03 in
Visibility 10.0 miles
Clouds Clear
Dew Point 51 °F
Humidity 94%
Rainfall 0.00 in
Snow Depth Not available.
6:38 AM 5:36 PM
Waxing Crescent, 40% visible
METAR KAVX 140951Z AUTO 32007KT 10SM CLR 19/01 A3010 RMK AO2 SLP169 T01890006
Pressure 30.03 in
Visibility 10.0 miles
Clouds Clear
Dew Point 51 °F
Humidity 94%
Rainfall 0.00 in
Snow Depth Not available.
6:38 AM 5:36 PM
Waxing Crescent, 40% visible
METAR KAVX 140951Z AUTO 32007KT 10SM CLR 19/01 A3010 RMK AO2 SLP169 T01890006

10-Day Weather Forecast

Almanac

Astronomy

Feb. 14, 2016 Rise Set
Actual Time
Civil Twilight
Nautical Twilight
Astronomical Twilight
Moon
Length of Visible Light
Length of Day
Tomorrow will be .
, % of the Moon is Illuminated

Today's Extremes

State Highs State Lows

Community

WunderPhotos

Upload Photos

1,892,761 photos uploaded!

WunderBlog® & News

Nearby

Air Quality

  Air Quality AQ Index Pollutant
Not available.

Snow Depth

Station Depth Elevation

Earthquake Activity

City Distance Mag. Time & Date
Minimum magnitude displayed is 2.5.

Coastal Water Temperatures

Place Temperature

Stations

Nearby Weather Stations

Station Location Temp. Windchill Dew Point Humidity Wind Precip. Elev Updated Type
                   

Watches & Warnings

High Surf Advisory
Issued: 10:56 PM PST Feb. 13, 2016 – National Weather Service

... High surf advisory remains in effect until noon PST Sunday...

* surf... surf of 5 to 8 feet today will subside to 4 to 7 feet
on Sunday.

* Impacts... large waves and strong rip currents will increase
the risk of ocean drowning. Sneaker waves can suddenly wash
people off of beaches and rock jetties.

* Locations... surf will be highest on exposed west facing
beaches.

Precautionary/preparedness actions...

A high surf advisory means that high surf and rip currents will
make swimming and rock jetties dangerous.

Remember... if caught in a rip current... swim parallel to shore
until you are free of the powerful current. Always swim near a
lifeguard.